Time;durP1;ratioP1;P1;durP2;ratioP2;P2;SDS_P1;SDS_P2;PMS_P1;PMS_P2;Temp;Humidity;BMP_temperature;BMP_pressure;BME280_temperature;BME280_humidity;BME280_pressure;Samples;Min_cycle;Max_cycle;Signal;HPM_P1;HPM_P2
2023/03/18 00:01:43;;;;;;;3.47;1.87;;;;;;;5.40;100.00;97367.19;22063474;27;20025;-54
2023/03/18 00:11:46;;;;;;;4.80;2.33;;;;;;;5.36;100.00;97366.84;22043513;27;20025;-57
2023/03/18 00:21:49;;;;;;;4.37;1.87;;;;;;;5.46;100.00;97400.25;22043167;27;20657;-56
2023/03/18 00:31:52;;;;;;;3.00;1.70;;;;;;;5.38;100.00;97390.72;22062923;27;20035;-56
2023/03/18 00:41:55;;;;;;;2.70;1.30;;;;;;;5.21;100.00;97380.81;22063018;27;20029;-57
2023/03/18 00:51:59;;;;;;;2.50;1.60;;;;;;;5.09;100.00;97383.56;22062852;27;20040;-57
2023/03/18 01:02:02;;;;;;;3.93;1.63;;;;;;;5.09;100.00;97378.19;22042471;27;20071;-57
2023/03/18 01:12:07;;;;;;;4.70;2.07;;;;;;;5.06;100.00;97392.09;22062461;27;20102;-55
2023/03/18 01:22:10;;;;;;;3.50;2.00;;;;;;;4.97;100.00;97380.13;22061808;27;20306;-56
2023/03/18 01:32:12;;;;;;;4.13;1.60;;;;;;;4.90;100.00;97395.53;22061969;27;20091;-57
2023/03/18 01:42:17;;;;;;;3.50;1.60;;;;;;;4.82;100.00;97387.88;22061922;27;20036;-55
2023/03/18 01:52:27;;;;;;;2.30;1.40;;;;;;;4.77;100.00;97377.06;22061611;27;20031;-57
2023/03/18 02:02:31;;;;;;;11.53;1.60;;;;;;;4.65;100.00;97372.59;22041817;27;20033;-57
2023/03/18 02:12:37;;;;;;;2.67;1.70;;;;;;;4.55;100.00;97383.09;22061519;27;20016;-56
2023/03/18 02:22:44;;;;;;;3.50;1.80;;;;;;;4.44;100.00;97376.75;22061260;27;20029;-54
2023/03/18 02:32:49;;;;;;;2.80;1.80;;;;;;;4.32;100.00;97374.09;22066335;27;20029;-57
2023/03/18 02:42:52;;;;;;;2.57;1.47;;;;;;;4.34;100.00;97376.53;22069961;27;20380;-56
2023/03/18 02:52:55;;;;;;;5.60;1.73;;;;;;;4.26;100.00;97374.22;22069688;27;20039;-57
2023/03/18 03:02:58;;;;;;;3.00;1.40;;;;;;;4.15;100.00;97379.37;22069708;27;20037;-56
2023/03/18 03:13:01;;;;;;;2.80;1.40;;;;;;;4.04;100.00;97367.62;22069430;27;20042;-57
2023/03/18 03:23:07;;;;;;;1.77;1.33;;;;;;;3.87;100.00;97364.84;22049911;27;20414;-57
2023/03/18 03:33:10;;;;;;;2.90;1.47;;;;;;;3.69;100.00;97381.84;22049768;27;20066;-56
2023/03/18 03:43:15;;;;;;;2.63;1.63;;;;;;;3.50;100.00;97383.81;22066209;26;20107;-56
2023/03/18 03:53:19;;;;;;;4.27;2.00;;;;;;;3.31;100.00;97384.97;22064294;27;20039;-56
2023/03/18 04:03:22;;;;;;;3.23;1.50;;;;;;;3.14;100.00;97385.63;22063624;27;20052;-56
2023/03/18 04:13:25;;;;;;;2.93;1.50;;;;;;;2.95;100.00;97382.22;22063625;27;20036;-56
2023/03/18 04:23:27;;;;;;;2.83;1.63;;;;;;;2.80;100.00;97385.28;22063029;27;20408;-57
2023/03/18 04:33:29;;;;;;;1.90;1.20;;;;;;;2.65;100.00;97384.88;22063064;27;20080;-57
2023/03/18 04:43:32;;;;;;;2.10;0.70;;;;;;;2.56;100.00;97368.34;22062660;27;20075;-57
2023/03/18 04:53:36;;;;;;;4.13;1.67;;;;;;;2.39;100.00;97378.84;22062886;27;20016;-56
2023/03/18 05:03:39;;;;;;;2.20;1.30;;;;;;;2.40;100.00;97395.66;22062653;27;20116;-57
2023/03/18 05:13:42;;;;;;;6.63;1.80;;;;;;;2.26;100.00;97381.66;22062297;27;20033;-56
2023/03/18 05:23:45;;;;;;;3.00;1.50;;;;;;;2.15;100.00;97375.22;22061899;27;20052;-57
2023/03/18 05:33:47;;;;;;;3.17;1.37;;;;;;;1.94;100.00;97368.50;22042066;27;20032;-56
2023/03/18 05:43:50;;;;;;;2.37;1.43;;;;;;;1.76;100.00;97379.97;22061868;27;20080;-56
2023/03/18 05:53:52;;;;;;;2.20;1.60;;;;;;;1.71;100.00;97403.78;22062345;27;20333;-56
2023/03/18 06:03:55;;;;;;;2.40;1.30;;;;;;;1.86;100.00;97405.09;22042272;27;20021;-55
2023/03/18 06:13:58;;;;;;;2.43;1.60;;;;;;;2.06;100.00;97405.94;22041990;27;20024;-56
2023/03/18 06:24:01;;;;;;;2.40;1.30;;;;;;;2.37;100.00;97416.44;22060970;27;20041;-57
2023/03/18 06:34:03;;;;;;;2.47;1.50;;;;;;;2.81;100.00;97424.31;22061589;27;20029;-57
2023/03/18 06:44:06;;;;;;;4.30;1.60;;;;;;;3.47;100.00;97423.56;22061059;27;20029;-57
2023/03/18 06:54:09;;;;;;;2.27;1.60;;;;;;;4.27;100.00;97419.47;22041295;27;20033;-58
2023/03/18 07:04:11;;;;;;;2.93;1.50;;;;;;;4.95;100.00;97429.62;22060322;27;20033;-57
2023/03/18 07:14:14;;;;;;;1.50;0.80;;;;;;;5.55;100.00;97445.19;22060938;27;20308;-57
2023/03/18 07:24:19;;;;;;;2.50;1.30;;;;;;;6.39;100.00;97443.50;22063807;27;20037;-57
2023/03/18 07:34:22;;;;;;;;;;;;;;;7.11;100.00;97463.19;22065055;27;20040;-57
2023/03/18 07:44:25;;;;;;;1.90;1.17;;;;;;;7.61;100.00;97473.88;22064268;27;19936;-57
2023/03/18 07:54:27;;;;;;;4.47;1.73;;;;;;;8.00;100.00;97480.91;22063893;27;20484;-57
2023/03/18 08:04:31;;;;;;;3.73;1.80;;;;;;;8.50;100.00;97473.44;22063276;27;20131;-57
2023/03/18 08:14:34;;;;;;;3.00;1.43;;;;;;;8.99;100.00;97486.63;22063400;27;20401;-57
2023/03/18 08:24:37;;;;;;;3.07;1.60;;;;;;;9.42;100.00;97490.00;22062468;27;20036;-57
2023/03/18 08:34:40;;;;;;;2.90;1.30;;;;;;;10.20;100.00;97493.53;22063057;26;20017;-58
2023/03/18 08:44:43;;;;;;;3.50;1.87;;;;;;;10.98;100.00;97495.00;22062894;27;20078;-58
2023/03/18 08:54:46;;;;;;;2.80;1.57;;;;;;;11.59;96.55;97484.91;22062819;27;20111;-57
2023/03/18 09:04:50;;;;;;;4.33;2.10;;;;;;;11.98;95.05;97480.63;22042326;27;20413;-56
2023/03/18 09:14:52;;;;;;;2.30;1.80;;;;;;;12.74;87.75;97480.16;22042060;27;20028;-58
2023/03/18 09:24:55;;;;;;;2.92;1.25;;;;;;;12.92;83.31;97460.38;22061906;27;20029;-57
2023/03/18 09:34:58;;;;;;;3.78;1.40;;;;;;;13.23;77.25;97443.72;22062734;27;20032;-57
2023/03/18 09:45:09;;;;;;;2.90;1.40;;;;;;;13.70;74.36;97443.88;22061655;27;20044;-58
2023/03/18 09:55:28;;;;;;;4.50;1.23;;;;;;;14.05;67.35;97442.47;22042058;27;20082;-58
2023/03/18 10:05:51;;;;;;;4.80;1.65;;;;;;;14.32;60.07;97440.94;22061625;26;20025;-57
2023/03/18 10:15:57;;;;;;;3.62;1.25;;;;;;;14.50;61.85;97441.97;22061916;27;20329;-57
2023/03/18 10:26:10;;;;;;;3.08;1.30;;;;;;;14.81;58.35;97427.75;22060737;27;20033;-57
2023/03/18 10:36:18;;;;;;;1.75;0.90;;;;;;;14.96;56.43;97429.38;22040868;27;20021;-57
2023/03/18 10:46:22;;;;;;;4.12;1.35;;;;;;;15.13;53.34;97408.87;22040884;27;20079;-58
2023/03/18 10:56:26;;;;;;;1.48;1.10;;;;;;;15.43;49.75;97401.94;22064701;27;20036;-58
2023/03/18 11:06:55;;;;;;;2.77;1.60;;;;;;;15.66;49.64;97399.22;22065377;27;20025;-58
2023/03/18 11:17:01;;;;;;;2.42;1.30;;;;;;;15.91;48.97;97395.88;22065072;27;20040;-58
2023/03/18 11:27:24;;;;;;;2.33;1.05;;;;;;;16.28;48.87;97398.50;22064361;27;20043;-57
2023/03/18 11:37:40;;;;;;;2.37;1.30;;;;;;;16.65;45.33;97390.09;22044867;27;20104;-58
2023/03/18 11:47:44;;;;;;;2.53;1.23;;;;;;;17.23;44.62;97375.28;22063986;27;20047;-58
2023/03/18 11:57:58;;;;;;;2.67;1.40;;;;;;;17.32;44.36;97371.75;22043581;27;20021;-58
2023/03/18 12:08:08;;;;;;;1.33;0.90;;;;;;;17.69;41.68;97370.31;22063422;27;20040;-58
2023/03/18 12:18:44;;;;;;;2.40;1.15;;;;;;;18.66;40.57;97361.78;22063352;27;20033;-58
2023/03/18 12:29:02;;;;;;;2.00;0.90;;;;;;;20.16;38.58;97360.25;22063824;27;20397;-58
2023/03/18 12:39:33;;;;;;;1.77;0.82;;;;;;;20.51;37.47;97348.81;22063138;27;20024;-58
2023/03/18 12:49:43;;;;;;;0.75;0.57;;;;;;;20.49;36.07;97340.16;22062862;27;20070;-58
2023/03/18 13:00:00;;;;;;;2.42;1.00;;;;;;;20.76;35.04;97340.59;22062597;27;20025;-55
2023/03/18 13:10:23;;;;;;;2.85;0.80;;;;;;;20.65;35.87;97334.75;22062333;27;20433;-56
2023/03/18 13:20:31;;;;;;;1.47;0.63;;;;;;;20.29;35.18;97323.41;22061870;27;20081;-55
2023/03/18 13:30:59;;;;;;;2.87;0.90;;;;;;;20.48;34.27;97313.81;22061826;27;20040;-55
2023/03/18 13:41:05;;;;;;;3.67;1.27;;;;;;;20.04;32.86;97310.84;22061348;27;20075;-56
2023/03/18 13:51:48;;;;;;;5.82;1.27;;;;;;;20.01;33.69;97317.00;22041681;27;20035;-57
2023/03/18 14:01:51;;;;;;;2.25;1.00;;;;;;;19.81;34.75;97297.53;22041023;27;20076;-56
2023/03/18 14:11:54;;;;;;;1.00;0.67;;;;;;;19.80;33.49;97301.41;22060539;27;20051;-55
2023/03/18 14:22:13;;;;;;;2.92;1.30;;;;;;;20.17;33.54;97298.72;22061011;27;20036;-55
2023/03/18 14:32:31;;;;;;;1.58;1.00;;;;;;;20.58;33.73;97288.66;22060802;27;20042;-56
2023/03/18 14:42:52;;;;;;;1.98;0.98;;;;;;;20.44;32.14;97290.94;22060840;26;20035;-55
2023/03/18 14:53:12;;;;;;;2.92;1.40;;;;;;;20.00;33.22;97280.53;22060701;27;20036;-55
2023/03/18 15:03:27;;;;;;;1.25;0.82;;;;;;;19.41;33.31;97274.19;22060356;27;20028;-56
2023/03/18 15:13:29;;;;;;;1.52;0.98;;;;;;;19.20;36.05;97265.19;22040847;27;20046;-56
2023/03/18 15:23:39;;;;;;;1.13;0.70;;;;;;;19.07;35.75;97259.66;22059346;27;20025;-55
2023/03/18 15:33:42;;;;;;;3.90;1.02;;;;;;;18.65;35.08;97256.13;22060030;27;20047;-55
2023/03/18 15:43:47;;;;;;;2.35;1.30;;;;;;;18.45;36.71;97255.78;22042844;27;20470;-55
2023/03/18 15:53:54;;;;;;;2.22;1.00;;;;;;;18.23;36.55;97257.66;22063200;27;20299;-55
2023/03/18 16:03:57;;;;;;;2.17;1.10;;;;;;;17.87;36.79;97252.66;22063264;27;20302;-55
2023/03/18 16:14:00;;;;;;;3.57;1.20;;;;;;;17.78;36.00;97252.69;22062615;27;20046;-55
2023/03/18 16:24:03;;;;;;;3.12;1.20;;;;;;;17.43;36.70;97258.25;22042488;27;20033;-55
2023/03/18 16:34:14;;;;;;;3.20;1.40;;;;;;;17.15;38.17;97253.16;22042862;27;20029;-55
2023/03/18 16:44:20;;;;;;;2.65;1.65;;;;;;;16.76;38.11;97272.09;22062943;27;20068;-56
2023/03/18 16:54:26;;;;;;;2.78;1.20;;;;;;;16.32;40.51;97282.16;22062936;27;20424;-55
2023/03/18 17:04:31;;;;;;;1.65;0.90;;;;;;;15.80;43.86;97284.69;22062453;27;20393;-55
2023/03/18 17:14:38;;;;;;;2.78;1.25;;;;;;;15.24;47.03;97296.66;22062301;27;20079;-55
2023/03/18 17:24:41;;;;;;;7.72;4.75;;;;;;;14.67;48.83;97301.81;22042214;27;20058;-55
2023/03/18 17:34:50;;;;;;;57.40;24.13;;;;;;;14.08;52.42;97305.16;22024465;27;20111;-55
2023/03/18 17:44:53;;;;;;;475.23;215.82;;;;;;;13.42;59.04;97313.41;22042102;27;20449;-54
2023/03/18 17:54:56;;;;;;;407.85;191.55;;;;;;;12.93;67.38;97301.91;22041681;27;20024;-57
2023/03/18 18:04:58;;;;;;;112.55;54.28;;;;;;;12.50;73.32;97304.69;22061215;27;20299;-56
2023/03/18 18:15:01;;;;;;;12.37;7.50;;;;;;;12.06;76.21;97328.25;22023355;27;20416;-55
2023/03/18 18:25:05;;;;;;;13.63;6.33;;;;;;;11.67;80.15;97331.88;22061176;27;20047;-57
2023/03/18 18:35:16;;;;;;;7.47;4.63;;;;;;;11.30;87.27;97335.97;22061442;27;20431;-56
2023/03/18 18:45:20;;;;;;;4.80;3.30;;;;;;;10.92;91.39;97341.09;22061051;27;20032;-57
2023/03/18 18:55:23;;;;;;;5.40;2.50;;;;;;;10.56;91.98;97357.53;22041385;27;20032;-53
2023/03/18 19:05:26;;;;;;;3.13;1.73;;;;;;;10.19;93.24;97356.81;22060746;27;20040;-56
2023/03/18 19:15:29;;;;;;;3.40;1.57;;;;;;;9.89;93.10;97358.50;22062988;27;20029;-56
2023/03/18 19:25:32;;;;;;;2.00;1.50;;;;;;;9.57;95.68;97367.75;22064533;27;20024;-57
2023/03/18 19:35:35;;;;;;;3.37;1.70;;;;;;;9.31;97.66;97381.22;22064565;27;20024;-57
2023/03/18 19:45:39;;;;;;;6.30;2.07;;;;;;;9.10;100.00;97384.97;22064273;27;20031;-57
2023/03/18 19:55:42;;;;;;;4.97;3.17;;;;;;;8.91;100.00;97392.78;22044430;27;20071;-57
2023/03/18 20:05:46;;;;;;;4.20;2.23;;;;;;;8.72;100.00;97403.22;22063522;27;20020;-57
2023/03/18 20:15:49;;;;;;;3.03;1.63;;;;;;;8.43;100.00;97399.03;22063396;27;20076;-57
2023/03/18 20:25:52;;;;;;;3.90;2.20;;;;;;;8.16;100.00;97411.84;21969249;27;20345;-56
2023/03/18 20:35:55;;;;;;;2.97;2.00;;;;;;;8.03;100.00;97411.22;21971896;27;20077;-57
2023/03/18 20:46:00;;;;;;;2.80;1.67;;;;;;;8.08;100.00;97430.06;21971707;27;20467;-57
2023/03/18 20:56:03;;;;;;;2.30;1.50;;;;;;;8.12;100.00;97430.38;21970169;27;20341;-56
2023/03/18 21:06:11;;;;;;;3.77;2.40;;;;;;;8.10;100.00;97444.12;21969678;27;20041;-57
2023/03/18 21:16:15;;;;;;;5.77;2.37;;;;;;;8.17;100.00;97443.88;21971012;27;20048;-57
2023/03/18 21:26:18;;;;;;;4.07;2.53;;;;;;;8.19;100.00;97438.25;22048469;27;20044;-56
2023/03/18 21:36:22;;;;;;;4.60;3.10;;;;;;;8.13;100.00;97432.81;22042791;27;20074;-56
2023/03/18 21:46:25;;;;;;;4.30;2.30;;;;;;;7.97;100.00;97440.00;22042084;27;20130;-55
2023/03/18 21:56:28;;;;;;;6.20;3.17;;;;;;;7.80;100.00;97450.88;22042045;27;20049;-56
2023/03/18 22:06:32;;;;;;;4.50;2.37;;;;;;;7.62;100.00;97449.41;22061660;27;20031;-57
2023/03/18 22:16:34;;;;;;;3.57;2.73;;;;;;;7.58;100.00;97444.81;22061461;27;20035;-57
2023/03/18 22:26:37;;;;;;;3.53;2.00;;;;;;;7.63;100.00;97451.03;22061199;27;20039;-57
2023/03/18 22:36:40;;;;;;;4.23;2.30;;;;;;;7.72;100.00;97455.94;22041196;27;20017;-57
2023/03/18 22:46:43;;;;;;;3.87;2.03;;;;;;;7.78;100.00;97452.22;22062060;26;20405;-57
2023/03/18 22:56:46;;;;;;;3.67;1.87;;;;;;;7.82;100.00;97449.84;22046448;26;20031;-56
2023/03/18 23:06:48;;;;;;;3.27;2.07;;;;;;;7.84;100.00;97470.03;22027865;27;20032;-57
2023/03/18 23:16:51;;;;;;;3.67;2.10;;;;;;;7.91;100.00;97477.91;22065487;27;20393;-56
2023/03/18 23:26:55;;;;;;;4.10;2.07;;;;;;;7.89;100.00;97490.78;22026420;27;20043;-57
2023/03/18 23:36:58;;;;;;;3.50;1.83;;;;;;;7.84;100.00;97496.97;22064803;27;20480;-57
2023/03/18 23:47:01;;;;;;;2.77;1.50;;;;;;;7.79;100.00;97497.72;22064060;27;20031;-56
2023/03/18 23:57:05;;;;;;;3.50;1.67;;;;;;;7.80;100.00;97514.69;22063315;27;20025;-57
